createdAt,value
2022-09-01T00:00:13.517Z,16.08
2022-09-01T00:01:00.243Z,16.04
2022-09-01T00:01:50.348Z,16.07
2022-09-01T00:02:37.224Z,16.12
2022-09-01T00:03:24.258Z,16.15
2022-09-01T00:04:16.197Z,16.17
2022-09-01T00:05:07.671Z,16.17
2022-09-01T00:05:57.258Z,16.09
2022-09-01T00:06:44.164Z,16.07
2022-09-01T00:07:31.677Z,16.11
2022-09-01T00:08:18.785Z,16.14
2022-09-01T00:09:07.846Z,16.07
2022-09-01T00:09:54.666Z,16.06
2022-09-01T00:10:42.057Z,16.09
2022-09-01T00:11:29.496Z,16.13
2022-09-01T00:12:16.239Z,16.13
2022-09-01T00:13:07.086Z,16.08
2022-09-01T00:13:54.977Z,16.04
2022-09-01T00:14:41.856Z,16.07
2022-09-01T00:15:28.637Z,16.05
2022-09-01T00:16:17.970Z,16.03
2022-09-01T00:17:07.376Z,16.03
2022-09-01T00:17:54.167Z,16.07
2022-09-01T00:18:46.796Z,16.04
2022-09-01T00:19:33.896Z,16.01
2022-09-01T00:20:20.962Z,16.02
2022-09-01T00:21:09.998Z,15.99
2022-09-01T00:21:57.500Z,15.99
2022-09-01T00:22:44.175Z,15.96
2022-09-01T00:23:30.886Z,15.89
2022-09-01T00:24:18.157Z,15.96
2022-09-01T00:25:06.169Z,15.98
2022-09-01T00:25:53.686Z,15.99
2022-09-01T00:26:40.566Z,15.98
2022-09-01T00:27:30.712Z,15.92
2022-09-01T00:28:17.689Z,15.91
2022-09-01T00:29:05.047Z,15.87
2022-09-01T00:29:51.776Z,15.88
2022-09-01T00:30:38.654Z,15.88
2022-09-01T00:31:26.530Z,15.88
2022-09-01T00:32:13.495Z,15.89
2022-09-01T00:33:00.225Z,15.88
2022-09-01T00:33:48.386Z,15.90
2022-09-01T00:34:35.176Z,15.82
2022-09-01T00:35:22.097Z,15.82
2022-09-01T00:36:09.226Z,15.85
2022-09-01T00:36:55.977Z,15.84
2022-09-01T00:37:42.906Z,15.90
2022-09-01T00:38:29.726Z,15.93
2022-09-01T00:39:16.735Z,15.90
2022-09-01T00:40:04.786Z,15.87
2022-09-01T00:40:51.693Z,15.90
2022-09-01T00:41:39.977Z,15.91
2022-09-01T00:42:27.266Z,15.88
2022-09-01T00:43:21.066Z,15.89
2022-09-01T00:44:12.145Z,15.90
2022-09-01T00:44:58.927Z,15.91
2022-09-01T00:45:47.181Z,15.91
2022-09-01T00:46:47.660Z,15.94
2022-09-01T00:47:37.706Z,15.88
2022-09-01T00:48:25.168Z,15.91
2022-09-01T00:49:18.006Z,15.96
2022-09-01T00:50:06.606Z,15.98
2022-09-01T00:50:54.412Z,15.98
2022-09-01T00:51:43.826Z,15.99
2022-09-01T00:52:41.714Z,16.00
2022-09-01T00:53:28.606Z,16.03
2022-09-01T00:54:20.598Z,16.03
2022-09-01T00:55:19.505Z,16.03
2022-09-01T00:56:07.676Z,15.99
2022-09-01T00:56:57.678Z,16.02
2022-09-01T00:57:45.755Z,16.04
2022-09-01T00:58:32.696Z,16.02
2022-09-01T00:59:21.578Z,16.03
2022-09-01T01:00:13.985Z,16.08
2022-09-01T01:01:00.748Z,16.05
2022-09-01T01:01:47.513Z,15.98
2022-09-01T01:02:39.190Z,15.96
2022-09-01T01:03:26.017Z,15.95
2022-09-01T01:04:15.066Z,15.96
2022-09-01T01:05:03.435Z,15.94
2022-09-01T01:05:58.177Z,15.89
2022-09-01T01:06:50.657Z,15.91
2022-09-01T01:07:43.466Z,15.86
2022-09-01T01:08:36.756Z,15.87
2022-09-01T01:09:23.466Z,15.89
2022-09-01T01:10:15.936Z,15.89
2022-09-01T01:11:17.961Z,15.84
2022-09-01T01:12:05.556Z,15.84
2022-09-01T01:12:52.834Z,15.86
2022-09-01T01:13:56.026Z,15.89
2022-09-01T01:14:46.196Z,15.95
2022-09-01T01:15:33.027Z,15.91
2022-09-01T01:16:19.904Z,15.83
2022-09-01T01:17:07.224Z,15.75
2022-09-01T01:17:54.046Z,15.75
2022-09-01T01:18:40.819Z,15.79
2022-09-01T01:20:01.527Z,15.73
2022-09-01T01:21:06.846Z,15.75
2022-09-01T01:22:12.337Z,15.74
2022-09-01T01:23:09.278Z,15.75
2022-09-01T01:24:20.528Z,15.78
2022-09-01T01:25:08.025Z,15.82
2022-09-01T01:25:59.625Z,15.78
2022-09-01T01:26:47.757Z,15.74
2022-09-01T01:27:40.616Z,15.74
2022-09-01T01:28:32.786Z,15.76
2022-09-01T01:29:19.936Z,15.76
2022-09-01T01:30:10.086Z,15.80
2022-09-01T01:31:05.290Z,15.80
2022-09-01T01:31:54.075Z,15.81
2022-09-01T01:32:46.896Z,15.76
2022-09-01T01:33:42.646Z,15.71
2022-09-01T01:34:29.776Z,15.70
2022-09-01T01:35:17.425Z,15.67
2022-09-01T01:36:08.032Z,15.67
2022-09-01T01:36:55.367Z,15.68
2022-09-01T01:37:45.995Z,15.72
2022-09-01T01:38:32.795Z,15.73
2022-09-01T01:39:25.716Z,15.75
2022-09-01T01:40:18.716Z,15.68
2022-09-01T01:41:06.525Z,15.68
2022-09-01T01:41:54.646Z,15.66
2022-09-01T01:42:49.737Z,15.64
2022-09-01T01:43:37.885Z,15.68
2022-09-01T01:44:28.093Z,15.73
2022-09-01T01:45:17.406Z,15.75
2022-09-01T01:46:06.202Z,15.72
2022-09-01T01:46:54.666Z,15.73
2022-09-01T01:47:42.487Z,15.69
2022-09-01T01:48:34.612Z,15.68
2022-09-01T01:49:25.005Z,15.73
2022-09-01T01:50:12.935Z,15.73
2022-09-01T01:50:59.825Z,15.69
2022-09-01T01:51:49.115Z,15.63
2022-09-01T01:52:36.636Z,15.69
2022-09-01T01:53:24.535Z,15.67
2022-09-01T01:54:12.855Z,15.71
2022-09-01T01:55:04.549Z,15.74
2022-09-01T01:55:52.017Z,15.69
2022-09-01T01:56:39.883Z,15.67
2022-09-01T01:57:32.046Z,15.63
2022-09-01T01:58:20.622Z,15.64
2022-09-01T01:59:10.007Z,15.64
2022-09-01T01:59:56.728Z,15.69
2022-09-01T02:00:46.926Z,15.68
2022-09-01T02:01:34.023Z,15.63
2022-09-01T02:02:20.942Z,15.53
2022-09-01T02:03:07.726Z,15.51
2022-09-01T02:03:56.106Z,15.59
2022-09-01T02:04:45.859Z,15.60
2022-09-01T02:05:35.727Z,15.53
2022-09-01T02:06:25.216Z,15.49
2022-09-01T02:07:13.889Z,15.46
2022-09-01T02:08:07.056Z,15.47
2022-09-01T02:08:58.426Z,15.52
2022-09-01T02:09:48.292Z,15.55
2022-09-01T02:10:40.797Z,15.49
2022-09-01T02:11:28.015Z,15.49
2022-09-01T02:12:19.236Z,15.45
2022-09-01T02:13:07.787Z,15.48
2022-09-01T02:13:59.085Z,15.44
2022-09-01T02:14:45.977Z,15.47
2022-09-01T02:15:43.850Z,15.50
2022-09-01T02:16:33.100Z,15.47
2022-09-01T02:17:20.005Z,15.52
2022-09-01T02:18:06.811Z,15.50
2022-09-01T02:18:54.151Z,15.48
2022-09-01T02:19:43.318Z,15.49
2022-09-01T02:20:30.046Z,15.49
2022-09-01T02:21:20.766Z,15.51
2022-09-01T02:22:07.525Z,15.53
2022-09-01T02:22:55.594Z,15.55
2022-09-01T02:23:42.336Z,15.54
2022-09-01T02:24:32.135Z,15.51
2022-09-01T02:25:19.137Z,15.51
2022-09-01T02:26:17.316Z,15.46
2022-09-01T02:27:05.973Z,15.47
2022-09-01T02:27:53.606Z,15.54
2022-09-01T02:28:42.686Z,15.59
2022-09-01T02:29:29.575Z,15.59
2022-09-01T02:30:16.349Z,15.63
2022-09-01T02:31:04.892Z,15.60
2022-09-01T02:31:53.667Z,15.61
2022-09-01T02:32:41.997Z,15.62
2022-09-01T02:33:28.966Z,15.61
2022-09-01T02:34:16.376Z,15.66
2022-09-01T02:35:07.399Z,15.64
2022-09-01T02:35:57.655Z,15.57
2022-09-01T02:36:50.265Z,15.59
2022-09-01T02:37:39.515Z,15.51
2022-09-01T02:38:29.365Z,15.55
2022-09-01T02:39:20.885Z,15.57
2022-09-01T02:40:10.672Z,15.51
2022-09-01T02:40:58.625Z,15.49
2022-09-01T02:41:45.775Z,15.51
2022-09-01T02:42:32.836Z,15.55
2022-09-01T02:43:21.248Z,15.54
2022-09-01T02:44:11.913Z,15.54
2022-09-01T02:44:58.987Z,15.57
2022-09-01T02:45:47.155Z,15.63
2022-09-01T02:46:34.745Z,15.64
2022-09-01T02:47:23.402Z,15.52
2022-09-01T02:48:11.300Z,15.47
2022-09-01T02:49:00.881Z,15.41
2022-09-01T02:49:47.776Z,15.39
2022-09-01T02:50:34.566Z,15.42
2022-09-01T02:51:23.837Z,15.37
2022-09-01T02:52:11.078Z,15.36
2022-09-01T02:53:01.932Z,15.31
2022-09-01T02:53:52.318Z,15.38
2022-09-01T02:54:39.075Z,15.43
2022-09-01T02:55:25.835Z,15.42
2022-09-01T02:56:14.478Z,15.40
2022-09-01T02:57:01.481Z,15.42
2022-09-01T02:57:52.477Z,15.42
2022-09-01T02:58:45.920Z,15.42
2022-09-01T02:59:34.847Z,15.42
2022-09-01T03:00:29.116Z,15.38
2022-09-01T03:01:25.018Z,15.32
2022-09-01T03:02:12.116Z,15.27
2022-09-01T03:03:00.265Z,15.34
2022-09-01T03:03:48.535Z,15.35
2022-09-01T03:04:35.809Z,15.36
2022-09-01T03:05:27.231Z,15.41
2022-09-01T03:06:15.095Z,15.41
2022-09-01T03:07:05.716Z,15.38
2022-09-01T03:07:58.079Z,15.39
2022-09-01T03:08:48.126Z,15.34
2022-09-01T03:09:35.561Z,15.31
2022-09-01T03:10:27.225Z,15.29
2022-09-01T03:11:14.285Z,15.31
2022-09-01T03:12:01.046Z,15.30
2022-09-01T03:12:48.061Z,15.35
2022-09-01T03:13:35.136Z,15.35
2022-09-01T03:14:24.422Z,15.36
2022-09-01T03:15:13.385Z,15.38
2022-09-01T03:16:00.386Z,15.32
2022-09-01T03:16:47.222Z,15.33
2022-09-01T03:17:35.305Z,15.36
2022-09-01T03:18:22.136Z,15.36
2022-09-01T03:19:09.686Z,15.38
2022-09-01T03:19:56.576Z,15.40
2022-09-01T03:20:46.563Z,15.44
2022-09-01T03:21:33.335Z,15.44
2022-09-01T03:22:20.895Z,15.39
2022-09-01T03:23:08.765Z,15.38
2022-09-01T03:23:55.796Z,15.45
2022-09-01T03:24:42.555Z,15.48
2022-09-01T03:25:30.235Z,15.47
2022-09-01T03:26:19.554Z,15.47
2022-09-01T03:27:06.376Z,15.47
2022-09-01T03:27:53.365Z,15.45
2022-09-01T03:28:40.545Z,15.44
2022-09-01T03:29:27.306Z,15.43
2022-09-01T03:30:14.385Z,15.39
2022-09-01T03:31:01.146Z,15.39
2022-09-01T03:31:48.168Z,15.36
2022-09-01T03:32:34.935Z,15.37
2022-09-01T03:33:24.096Z,15.34
2022-09-01T03:34:11.233Z,15.35
2022-09-01T03:34:58.036Z,15.37
2022-09-01T03:35:45.440Z,15.40
2022-09-01T03:36:33.556Z,15.38
2022-09-01T03:37:21.030Z,15.38
2022-09-01T03:38:07.778Z,15.31
2022-09-01T03:38:56.036Z,15.31
2022-09-01T03:39:42.766Z,15.37
2022-09-01T03:40:36.213Z,15.36
2022-09-01T03:41:28.575Z,15.34
2022-09-01T03:42:28.076Z,15.30
2022-09-01T03:43:16.941Z,15.26
2022-09-01T03:44:03.843Z,15.22
2022-09-01T03:44:52.076Z,15.16
2022-09-01T03:45:39.136Z,15.16
2022-09-01T03:46:27.787Z,15.17
2022-09-01T03:47:15.443Z,15.22
2022-09-01T03:48:09.108Z,15.24
2022-09-01T03:49:03.815Z,15.22
2022-09-01T03:49:51.954Z,15.25
2022-09-01T03:50:45.166Z,15.26
2022-09-01T03:51:31.867Z,15.25
2022-09-01T03:52:18.700Z,15.30
2022-09-01T03:53:05.635Z,15.29
2022-09-01T03:53:57.546Z,15.30
2022-09-01T03:54:46.184Z,15.29
2022-09-01T03:55:34.805Z,15.22
2022-09-01T03:56:24.305Z,15.19
2022-09-01T03:57:11.766Z,15.15
2022-09-01T03:58:06.380Z,15.16
2022-09-01T03:58:59.176Z,15.19
2022-09-01T03:59:45.945Z,15.14
2022-09-01T04:00:38.765Z,15.14
2022-09-01T04:01:27.809Z,15.16
2022-09-01T04:02:15.230Z,15.21
2022-09-01T04:03:04.695Z,15.23
2022-09-01T04:03:52.322Z,15.21
2022-09-01T04:04:39.126Z,15.20
2022-09-01T04:05:28.965Z,15.23
2022-09-01T04:06:18.866Z,15.23
2022-09-01T04:07:05.645Z,15.24
2022-09-01T04:07:52.446Z,15.27
2022-09-01T04:08:39.755Z,15.30
2022-09-01T04:09:27.188Z,15.25
2022-09-01T04:10:14.382Z,15.29
2022-09-01T04:11:05.677Z,15.33
2022-09-01T04:11:53.176Z,15.32
2022-09-01T04:12:39.875Z,15.33
2022-09-01T04:13:34.305Z,15.31
2022-09-01T04:14:21.017Z,15.37
2022-09-01T04:15:08.535Z,15.33
2022-09-01T04:15:56.505Z,15.27
2022-09-01T04:17:02.672Z,15.27
2022-09-01T04:18:07.826Z,15.25
2022-09-01T04:18:54.856Z,15.28
2022-09-01T04:19:43.195Z,15.26
2022-09-01T04:20:30.046Z,15.18
2022-09-01T04:21:17.996Z,15.20
2022-09-01T04:22:05.431Z,15.20
2022-09-01T04:22:52.845Z,15.10
2022-09-01T04:23:39.535Z,15.08
2022-09-01T04:24:28.324Z,15.14
2022-09-01T04:25:16.194Z,15.20
2022-09-01T04:26:10.270Z,15.19
2022-09-01T04:26:59.006Z,15.23
2022-09-01T04:27:45.856Z,15.30
2022-09-01T04:28:34.416Z,15.34
2022-09-01T04:29:32.980Z,15.32
2022-09-01T04:30:19.875Z,15.29
2022-09-01T04:31:09.355Z,15.35
2022-09-01T04:32:16.062Z,15.35
2022-09-01T04:33:02.916Z,15.34
2022-09-01T04:33:52.914Z,15.30
2022-09-01T04:34:41.832Z,15.32
2022-09-01T04:35:37.772Z,15.38
2022-09-01T04:36:30.926Z,15.42
2022-09-01T04:37:21.766Z,15.46
2022-09-01T04:38:08.836Z,15.43
2022-09-01T04:38:58.693Z,15.42
2022-09-01T04:39:56.179Z,15.48
2022-09-01T04:40:43.824Z,15.48
2022-09-01T04:41:32.626Z,15.44
2022-09-01T04:42:21.965Z,15.42
2022-09-01T04:43:09.445Z,15.45
2022-09-01T04:43:57.187Z,15.49
2022-09-01T04:44:45.627Z,15.47
2022-09-01T04:45:36.427Z,15.53
2022-09-01T04:46:28.403Z,15.46
2022-09-01T04:47:17.316Z,15.44
2022-09-01T04:48:05.446Z,15.28
2022-09-01T04:48:53.648Z,15.28
2022-09-01T04:49:40.316Z,15.23
2022-09-01T04:50:27.655Z,15.22
2022-09-01T04:51:15.699Z,15.21
2022-09-01T04:52:02.695Z,15.19
2022-09-01T04:52:49.606Z,15.22
2022-09-01T04:53:38.406Z,15.25
2022-09-01T04:54:25.166Z,15.23
2022-09-01T04:55:19.676Z,15.23
2022-09-01T04:56:07.815Z,15.30
2022-09-01T04:56:55.143Z,15.35
2022-09-01T04:57:47.429Z,15.37
2022-09-01T04:58:34.376Z,15.32
2022-09-01T04:59:23.655Z,15.39
2022-09-01T05:00:22.604Z,15.39
2022-09-01T05:01:24.047Z,15.42
2022-09-01T05:02:10.894Z,15.37
2022-09-01T05:03:04.946Z,15.41
2022-09-01T05:04:03.995Z,15.43
2022-09-01T05:04:52.345Z,15.52
2022-09-01T05:05:44.920Z,15.60
2022-09-01T05:06:34.043Z,15.66
2022-09-01T05:07:21.636Z,15.64
2022-09-01T05:08:23.954Z,15.62
2022-09-01T05:09:13.148Z,15.67
2022-09-01T05:10:01.495Z,15.76
2022-09-01T05:10:52.435Z,15.79
2022-09-01T05:11:40.095Z,15.76
2022-09-01T05:12:28.006Z,15.70
2022-09-01T05:13:17.707Z,15.77
2022-09-01T05:14:05.487Z,15.87
2022-09-01T05:14:52.555Z,15.92
2022-09-01T05:15:46.756Z,15.95
2022-09-01T05:16:35.933Z,15.99
2022-09-01T05:17:23.526Z,16.04
2022-09-01T05:18:10.555Z,16.08
2022-09-01T05:18:58.103Z,16.10
2022-09-01T05:19:47.932Z,16.07
2022-09-01T05:20:38.375Z,16.09
2022-09-01T05:21:26.766Z,16.10
2022-09-01T05:22:14.536Z,16.18
2022-09-01T05:23:02.024Z,16.20
2022-09-01T05:23:51.993Z,16.25
2022-09-01T05:24:42.091Z,16.31
2022-09-01T05:25:29.176Z,16.38
2022-09-01T05:26:27.863Z,16.41
2022-09-01T05:27:15.308Z,16.41
2022-09-01T05:28:03.256Z,16.49
2022-09-01T05:28:55.986Z,16.46
2022-09-01T05:29:42.706Z,16.43
2022-09-01T05:30:29.478Z,16.35
2022-09-01T05:31:20.023Z,16.28
2022-09-01T05:32:08.986Z,16.22
2022-09-01T05:32:55.807Z,16.20
2022-09-01T05:33:46.118Z,16.18
2022-09-01T05:34:36.526Z,16.21
2022-09-01T05:35:31.689Z,16.23
2022-09-01T05:36:23.181Z,16.20
2022-09-01T05:37:12.163Z,16.17
2022-09-01T05:37:59.766Z,16.17
2022-09-01T05:38:48.247Z,16.21
2022-09-01T05:39:36.607Z,16.28
2022-09-01T05:40:23.581Z,16.21
2022-09-01T05:41:15.161Z,16.16
2022-09-01T05:42:02.095Z,16.15
2022-09-01T05:42:49.168Z,16.20
2022-09-01T05:43:37.068Z,16.23
2022-09-01T05:44:24.036Z,16.27
2022-09-01T05:45:14.606Z,16.30
2022-09-01T05:46:07.085Z,16.28
2022-09-01T05:46:56.100Z,16.38
2022-09-01T05:47:42.977Z,16.39
2022-09-01T05:48:31.763Z,16.40
2022-09-01T05:49:18.805Z,16.36
2022-09-01T05:50:13.639Z,16.40
2022-09-01T05:51:01.294Z,16.43
2022-09-01T05:51:52.560Z,16.49
2022-09-01T05:52:40.057Z,16.58
2022-09-01T05:53:29.047Z,16.53
2022-09-01T05:54:19.509Z,16.53
2022-09-01T05:55:09.135Z,16.55
2022-09-01T05:55:57.786Z,16.53
2022-09-01T05:56:45.178Z,16.47
2022-09-01T05:57:35.385Z,16.51
2022-09-01T05:58:25.811Z,16.43
2022-09-01T05:59:23.596Z,16.44
2022-09-01T06:00:12.626Z,16.52
2022-09-01T06:00:59.480Z,16.46
2022-09-01T06:01:50.227Z,16.44
2022-09-01T06:02:37.895Z,16.42
2022-09-01T06:03:27.078Z,16.39
2022-09-01T06:04:14.397Z,16.43
2022-09-01T06:05:01.046Z,16.48
2022-09-01T06:05:52.666Z,16.43
2022-09-01T06:07:05.298Z,16.38
2022-09-01T06:07:55.686Z,16.36
2022-09-01T06:08:46.728Z,16.37
2022-09-01T06:09:33.777Z,16.38
2022-09-01T06:10:20.658Z,16.41
2022-09-01T06:11:12.727Z,16.43
2022-09-01T06:11:59.736Z,16.50
2022-09-01T06:12:48.804Z,16.49
2022-09-01T06:13:35.695Z,16.52
2022-09-01T06:14:22.396Z,16.47
2022-09-01T06:15:16.262Z,16.46
2022-09-01T06:16:03.626Z,16.53
2022-09-01T06:16:50.450Z,16.56
2022-09-01T06:17:37.137Z,16.50
2022-09-01T06:18:24.266Z,16.44
2022-09-01T06:19:11.217Z,16.37
2022-09-01T06:19:58.693Z,16.40
2022-09-01T06:20:48.018Z,16.39
2022-09-01T06:21:34.857Z,16.43
2022-09-01T06:22:21.965Z,16.46
2022-09-01T06:23:09.187Z,16.44
2022-09-01T06:23:58.381Z,16.41
2022-09-01T06:24:47.367Z,16.42
2022-09-01T06:25:39.726Z,16.49
2022-09-01T06:26:28.936Z,16.52
2022-09-01T06:27:20.616Z,16.57
2022-09-01T06:28:08.636Z,16.62
2022-09-01T06:29:01.448Z,16.64
2022-09-01T06:29:55.436Z,16.63
2022-09-01T06:30:44.496Z,16.57
2022-09-01T06:31:39.457Z,16.54
2022-09-01T06:32:27.313Z,16.47
2022-09-01T06:33:14.188Z,16.41
2022-09-01T06:34:03.407Z,16.36
2022-09-01T06:34:51.317Z,16.40
2022-09-01T06:35:39.186Z,16.39
2022-09-01T06:36:26.285Z,16.40
2022-09-01T06:37:13.582Z,16.31
2022-09-01T06:38:02.067Z,16.36
2022-09-01T06:38:53.266Z,16.34
2022-09-01T06:39:40.380Z,16.35
2022-09-01T06:40:28.064Z,16.44
2022-09-01T06:41:14.956Z,16.48
2022-09-01T06:42:05.719Z,16.47
2022-09-01T06:42:53.327Z,16.47
2022-09-01T06:43:41.896Z,16.52
2022-09-01T06:44:32.148Z,16.53
2022-09-01T06:45:21.719Z,16.61
2022-09-01T06:46:09.892Z,16.73
2022-09-01T06:46:56.794Z,16.79
2022-09-01T06:47:45.209Z,16.84
2022-09-01T06:48:31.965Z,16.91
2022-09-01T06:49:21.671Z,16.90
2022-09-01T06:50:08.916Z,16.83
2022-09-01T06:52:04.018Z,16.73
2022-09-01T06:54:11.303Z,16.63
2022-09-01T06:55:05.754Z,16.71
2022-09-01T06:55:56.477Z,16.72
2022-09-01T06:58:18.744Z,16.73
2022-09-01T06:59:00.826Z,16.67
2022-09-01T06:59:48.227Z,16.69
2022-09-01T07:00:42.706Z,16.76
2022-09-01T07:01:30.595Z,16.72
2022-09-01T07:02:18.798Z,16.64
2022-09-01T07:03:09.667Z,16.69
2022-09-01T07:03:59.510Z,16.90
2022-09-01T07:04:46.335Z,16.93
2022-09-01T07:08:05.402Z,16.93
2022-09-01T07:10:23.711Z,16.97
2022-09-01T07:12:32.536Z,17.12
2022-09-01T07:13:25.566Z,17.18
2022-09-01T07:14:16.304Z,17.14
2022-09-01T07:16:35.515Z,17.11
2022-09-01T07:17:24.595Z,17.21
2022-09-01T07:18:12.942Z,17.27
2022-09-01T07:19:02.277Z,17.25
2022-09-01T07:19:49.136Z,17.21
2022-09-01T07:21:02.812Z,17.42
2022-09-01T07:23:09.934Z,17.24
2022-09-01T07:24:13.674Z,17.45
2022-09-01T07:25:16.705Z,17.41
2022-09-01T07:26:07.046Z,17.48
2022-09-01T07:26:53.806Z,17.45
2022-09-01T07:27:49.176Z,17.39
2022-09-01T07:28:37.116Z,17.39
2022-09-01T07:29:26.657Z,17.50
2022-09-01T07:30:13.436Z,17.66
2022-09-01T07:31:48.825Z,17.60
2022-09-01T07:34:41.661Z,17.49
2022-09-01T07:35:30.166Z,17.51
2022-09-01T07:36:27.982Z,17.51
2022-09-01T07:39:57.604Z,16.74
2022-09-01T07:43:53.176Z,17.68
2022-09-01T07:44:40.266Z,17.64
2022-09-01T07:45:28.202Z,17.60
2022-09-01T07:47:52.339Z,17.48
2022-09-01T07:49:02.608Z,17.49
2022-09-01T07:50:11.421Z,17.54
2022-09-01T07:51:55.376Z,17.58
2022-09-01T07:52:43.517Z,17.55
2022-09-01T07:53:33.176Z,17.58
2022-09-01T07:54:24.104Z,17.56
2022-09-01T07:55:12.786Z,17.72
2022-09-01T07:56:09.639Z,18.00
2022-09-01T07:56:56.566Z,18.10
2022-09-01T07:57:46.006Z,17.83
2022-09-01T07:58:33.767Z,17.86
2022-09-01T07:59:21.415Z,17.93
2022-09-01T08:00:12.938Z,18.04
2022-09-01T08:01:02.927Z,18.00
2022-09-01T08:01:50.631Z,18.10
2022-09-01T08:02:40.826Z,18.15
2022-09-01T08:03:27.594Z,18.06
2022-09-01T08:04:15.096Z,18.15
2022-09-01T08:05:01.816Z,18.07
2022-09-01T08:05:51.486Z,17.84
2022-09-01T08:06:39.338Z,17.89
2022-09-01T08:07:27.657Z,18.00
2022-09-01T08:08:26.256Z,17.92
2022-09-01T08:09:32.921Z,18.04
2022-09-01T08:10:22.661Z,18.36
2022-09-01T08:11:09.456Z,18.54
2022-09-01T08:12:02.267Z,18.75
2022-09-01T08:12:57.687Z,18.90
2022-09-01T08:13:45.007Z,18.99
2022-09-01T08:14:39.115Z,19.28
2022-09-01T08:16:06.734Z,19.25
2022-09-01T08:16:51.546Z,19.39
2022-09-01T08:17:54.705Z,19.68
2022-09-01T08:18:50.146Z,19.66
2022-09-01T08:19:37.047Z,19.61
2022-09-01T08:20:23.846Z,19.63
2022-09-01T08:21:12.375Z,19.79
2022-09-01T08:21:59.086Z,19.80
2022-09-01T08:22:46.281Z,19.82
2022-09-01T08:23:33.076Z,19.82
2022-09-01T08:24:19.997Z,19.90
2022-09-01T08:25:09.117Z,19.95
2022-09-01T08:25:55.796Z,19.79
2022-09-01T08:26:42.536Z,19.66
2022-09-01T08:27:29.386Z,19.72
2022-09-01T08:28:17.111Z,19.89
2022-09-01T08:29:04.619Z,20.03
2022-09-01T08:29:51.412Z,20.06
2022-09-01T08:30:39.957Z,19.97
2022-09-01T08:31:30.617Z,20.14
2022-09-01T08:32:17.927Z,20.01
2022-09-01T08:33:11.911Z,19.93
2022-09-01T08:34:00.022Z,19.95
2022-09-01T08:34:46.887Z,20.14
2022-09-01T08:35:33.636Z,20.12
2022-09-01T08:36:23.921Z,20.09
2022-09-01T08:37:11.646Z,20.24
2022-09-01T08:37:59.436Z,20.38
2022-09-01T08:38:46.188Z,20.52
2022-09-01T08:39:33.226Z,20.53
2022-09-01T08:40:23.192Z,20.52
2022-09-01T08:41:20.276Z,20.48
2022-09-01T08:42:33.946Z,20.66
2022-09-01T08:43:31.406Z,20.28
2022-09-01T08:44:30.097Z,19.92
2022-09-01T08:45:19.875Z,20.27
2022-09-01T08:46:15.189Z,20.48
2022-09-01T08:47:05.819Z,20.55
2022-09-01T08:48:22.505Z,20.45
2022-09-01T08:49:24.661Z,20.67
2022-09-01T08:50:12.857Z,20.79
2022-09-01T08:51:13.517Z,20.61
2022-09-01T08:52:21.969Z,20.74
2022-09-01T08:53:33.620Z,20.45
2022-09-01T08:54:56.166Z,20.14
2022-09-01T08:55:45.606Z,20.09
2022-09-01T08:56:33.086Z,20.33
2022-09-01T08:57:41.217Z,20.29
2022-09-01T08:58:31.990Z,20.45
2022-09-01T08:59:20.087Z,20.53
2022-09-01T09:00:11.127Z,20.71
2022-09-01T09:01:02.653Z,20.92
2022-09-01T09:02:12.226Z,20.88
2022-09-01T09:03:20.855Z,20.74
2022-09-01T09:04:24.696Z,20.52
2022-09-01T09:05:32.247Z,20.72
2022-09-01T09:06:25.646Z,20.51
2022-09-01T09:07:50.866Z,20.50
2022-09-01T09:08:56.795Z,20.60
2022-09-01T09:09:53.866Z,21.02
2022-09-01T09:11:22.630Z,21.28
2022-09-01T09:12:51.635Z,21.42
2022-09-01T09:13:56.827Z,21.55
2022-09-01T09:14:46.229Z,21.51
2022-09-01T09:15:37.868Z,21.70
2022-09-01T09:16:42.855Z,21.79
2022-09-01T09:17:34.866Z,21.74
2022-09-01T09:18:39.171Z,21.76
2022-09-01T09:19:35.188Z,21.59
2022-09-01T09:20:22.207Z,21.69
2022-09-01T09:21:18.796Z,21.53
2022-09-01T09:22:12.217Z,21.17
2022-09-01T09:23:03.937Z,21.35
2022-09-01T09:24:22.655Z,21.40
2022-09-01T09:25:11.036Z,21.59
2022-09-01T09:25:57.848Z,21.70
2022-09-01T09:26:56.136Z,21.89
2022-09-01T09:27:45.627Z,21.88
2022-09-01T09:28:32.367Z,22.11
2022-09-01T09:29:20.816Z,22.17
2022-09-01T09:30:11.757Z,21.74
2022-09-01T09:31:32.841Z,21.84
2022-09-01T09:32:23.948Z,21.69
2022-09-01T09:33:54.317Z,21.39
2022-09-01T09:34:42.947Z,21.67
2022-09-01T09:35:37.737Z,21.43
2022-09-01T09:36:31.327Z,21.50
2022-09-01T09:37:23.113Z,21.65
2022-09-01T09:38:33.604Z,21.28
2022-09-01T09:39:20.606Z,21.35
2022-09-01T09:40:12.620Z,21.59
2022-09-01T09:41:16.522Z,21.60
2022-09-01T09:42:11.337Z,21.47
2022-09-01T09:43:04.196Z,21.44
2022-09-01T09:44:23.136Z,21.61
2022-09-01T09:45:24.895Z,21.60
2022-09-01T09:46:37.290Z,21.46
2022-09-01T09:47:46.573Z,21.21
2022-09-01T09:48:34.416Z,20.90
2022-09-01T09:49:36.135Z,21.01
2022-09-01T09:50:38.156Z,20.82
2022-09-01T09:51:28.962Z,20.62
2022-09-01T09:52:18.626Z,20.86
2022-09-01T09:53:16.459Z,21.14
2022-09-01T09:54:15.349Z,21.32
2022-09-01T09:55:06.185Z,20.65
2022-09-01T09:56:00.699Z,20.61
2022-09-01T09:56:48.977Z,20.69
2022-09-01T09:57:40.177Z,20.65
2022-09-01T09:58:34.998Z,20.78
2022-09-01T09:59:56.570Z,20.82
2022-09-01T10:00:36.998Z,20.81
2022-09-01T10:01:31.160Z,20.77
2022-09-01T10:02:39.096Z,20.90
2022-09-01T10:03:42.664Z,21.07
2022-09-01T10:04:36.068Z,21.06
2022-09-01T10:05:52.567Z,21.08
2022-09-01T10:06:42.256Z,21.25
2022-09-01T10:07:33.326Z,21.04
2022-09-01T10:08:37.302Z,21.04
2022-09-01T10:09:24.777Z,21.08
2022-09-01T10:10:26.716Z,21.22
2022-09-01T10:11:31.308Z,21.30
2022-09-01T10:12:25.008Z,21.16
2022-09-01T10:13:15.382Z,21.13
2022-09-01T10:14:02.066Z,21.15
2022-09-01T10:15:12.808Z,21.23
2022-09-01T10:16:05.371Z,21.29
2022-09-01T10:17:04.461Z,21.06
2022-09-01T10:18:19.685Z,21.07
2022-09-01T10:19:01.417Z,21.00
2022-09-01T10:19:54.473Z,20.89
2022-09-01T10:20:49.524Z,20.88
2022-09-01T10:21:41.507Z,20.78
2022-09-01T10:22:28.217Z,20.67
2022-09-01T10:23:15.710Z,20.42
2022-09-01T10:24:20.435Z,20.19
2022-09-01T10:25:10.410Z,20.26
2022-09-01T10:26:06.427Z,20.39
2022-09-01T10:26:58.546Z,20.42
2022-09-01T10:27:49.166Z,20.52
2022-09-01T10:28:41.649Z,20.73
2022-09-01T10:29:48.688Z,20.83
2022-09-01T10:30:37.599Z,20.76
2022-09-01T10:31:32.073Z,20.85
2022-09-01T10:32:36.686Z,20.90
2022-09-01T10:33:24.117Z,20.96
2022-09-01T10:34:19.439Z,21.16
2022-09-01T10:35:11.376Z,21.16
2022-09-01T10:35:58.285Z,21.28
2022-09-01T10:36:54.601Z,21.38
2022-09-01T10:37:43.626Z,21.28
2022-09-01T10:38:30.770Z,21.44
2022-09-01T10:39:22.192Z,21.56
2022-09-01T10:40:35.057Z,21.54
2022-09-01T10:42:00.453Z,21.42
2022-09-01T10:42:54.256Z,21.63
2022-09-01T10:43:49.052Z,21.93
2022-09-01T10:44:57.699Z,22.03
2022-09-01T10:45:44.804Z,21.93
2022-09-01T10:46:48.940Z,21.77
2022-09-01T10:47:38.132Z,21.89
2022-09-01T10:48:45.778Z,22.05
2022-09-01T10:49:32.800Z,22.31
2022-09-01T10:50:26.368Z,22.39
2022-09-01T10:51:18.273Z,22.45
2022-09-01T10:52:12.912Z,22.21
2022-09-01T10:53:04.950Z,22.00
2022-09-01T10:53:53.597Z,21.67
2022-09-01T10:54:50.848Z,21.76
2022-09-01T10:55:45.498Z,21.97
2022-09-01T10:56:42.936Z,21.94
2022-09-01T10:57:42.324Z,21.97
2022-09-01T11:00:36.834Z,21.87
2022-09-01T11:01:49.275Z,22.27
2022-09-01T11:02:42.329Z,22.53
2022-09-01T11:03:42.013Z,22.71
2022-09-01T11:04:37.777Z,22.78
2022-09-01T11:05:24.626Z,22.82
2022-09-01T11:06:33.139Z,23.05
2022-09-01T11:07:33.488Z,23.14
2022-09-01T11:08:32.937Z,23.33
2022-09-01T11:09:24.318Z,23.38
2022-09-01T11:10:55.445Z,23.18
2022-09-01T11:11:54.927Z,22.84
2022-09-01T11:12:51.927Z,22.73
2022-09-01T11:13:54.226Z,22.95
2022-09-01T11:14:51.419Z,23.27
2022-09-01T11:15:38.846Z,23.25
2022-09-01T11:16:50.381Z,23.32
2022-09-01T11:17:39.058Z,23.38
2022-09-01T11:18:28.317Z,23.50
2022-09-01T11:19:33.446Z,23.43
2022-09-01T11:20:29.366Z,23.28
2022-09-01T11:21:28.838Z,23.54
2022-09-01T11:22:19.015Z,23.12
2022-09-01T11:23:23.086Z,23.30
2022-09-01T11:24:50.819Z,23.54
2022-09-01T11:26:18.570Z,23.51
2022-09-01T11:26:55.300Z,23.57
2022-09-01T11:27:50.997Z,23.63
2022-09-01T11:28:39.747Z,23.69
2022-09-01T11:29:57.238Z,23.51